Time;durP1;ratioP1;P1;durP2;ratioP2;P2;SDS_P1;SDS_P2;PMS_P1;PMS_P2;Temp;Humidity;BMP_temperature;BMP_pressure;BME280_temperature;BME280_humidity;BME280_pressure;Samples;Min_cycle;Max_cycle;Signal;HPM_P1;HPM_P2
2022/05/18 00:00:57;;;;;;;5.72;3.97;;;16.20;99.90;;;;;;5030098;28;20060;-80
2022/05/18 00:03:26;;;;;;;8.63;4.70;;;16.20;99.90;;;;;;5062625;28;20127;-80
2022/05/18 00:05:51;;;;;;;6.93;4.63;;;16.10;99.90;;;;;;5030567;28;20041;-80
2022/05/18 00:08:17;;;;;;;8.98;4.53;;;16.10;99.90;;;;;;5014659;28;20152;-81
2022/05/18 00:10:46;;;;;;;8.50;5.00;;;16.00;99.90;;;;;;5033771;28;20140;-80
2022/05/18 00:13:13;;;;;;;9.00;4.80;;;16.00;99.90;;;;;;5019455;28;20050;-81
2022/05/18 00:15:39;;;;;;;8.20;4.68;;;15.90;99.90;;;;;;5009922;28;20053;-79
2022/05/18 00:18:06;;;;;;;9.32;4.72;;;15.90;99.90;;;;;;5044489;28;20049;-81
2022/05/18 00:20:32;;;;;;;7.82;5.20;;;15.80;99.90;;;;;;5036463;28;20053;-80
2022/05/18 00:23:01;;;;;;;7.80;5.22;;;15.80;99.90;;;;;;5030587;28;20144;-81
2022/05/18 00:25:30;;;;;;;7.35;4.65;;;15.80;99.90;;;;;;5030632;28;20049;-81
2022/05/18 00:27:56;;;;;;;6.97;5.45;;;15.70;99.90;;;;;;5029807;28;20460;-81
2022/05/18 00:30:23;;;;;;;7.90;5.63;;;15.70;99.90;;;;;;5021408;28;20128;-81
2022/05/18 00:32:49;;;;;;;8.90;5.60;;;15.70;99.90;;;;;;5021505;28;20036;-81
2022/05/18 00:35:16;;;;;;;8.93;5.30;;;15.60;99.90;;;;;;5027539;28;20406;-81
2022/05/18 00:37:42;;;;;;;8.23;5.40;;;15.60;99.90;;;;;;5029015;28;20788;-80
2022/05/18 00:40:10;;;;;;;10.68;6.00;;;15.60;99.90;;;;;;5029776;28;20065;-81
2022/05/18 00:42:36;;;;;;;10.70;5.78;;;15.60;99.90;;;;;;5043972;28;20089;-80
2022/05/18 00:45:03;;;;;;;6.90;5.90;;;15.50;99.90;;;;;;4996008;28;20076;-81
2022/05/18 00:47:29;;;;;;;8.10;5.95;;;15.50;99.90;;;;;;4996524;28;20053;-80
2022/05/18 00:50:27;;;;;;;9.55;6.13;;;15.50;99.90;;;;;;5014069;28;20483;-81
2022/05/18 00:53:01;;;;;;;9.23;5.90;;;15.50;99.90;;;;;;5001196;28;20057;-80
2022/05/18 00:55:30;;;;;;;9.48;5.85;;;15.40;99.90;;;;;;5029075;28;20438;-81
2022/05/18 00:58:15;;;;;;;8.90;6.32;;;15.40;99.90;;;;;;5014228;28;20076;-80
2022/05/18 01:00:41;;;;;;;11.82;6.35;;;15.40;99.90;;;;;;5022396;28;20127;-80
2022/05/18 01:03:20;;;;;;;10.75;6.15;;;15.40;99.90;;;;;;4996371;28;20061;-80
2022/05/18 01:05:49;;;;;;;8.73;6.03;;;15.40;99.90;;;;;;5030604;28;20048;-80
2022/05/18 01:08:20;;;;;;;9.85;6.60;;;15.30;99.90;;;;;;5027913;28;20057;-80
2022/05/18 01:10:46;;;;;;;9.15;6.20;;;15.30;99.90;;;;;;5018603;28;20128;-80
2022/05/18 01:13:12;;;;;;;9.05;5.90;;;15.30;99.90;;;;;;5015632;28;20136;-81
2022/05/18 01:15:38;;;;;;;13.15;7.00;;;15.30;99.90;;;;;;5010482;28;20187;-80
2022/05/18 01:18:04;;;;;;;13.52;6.65;;;15.30;99.90;;;;;;5027408;28;20082;-81
2022/05/18 01:20:35;;;;;;;10.45;6.63;;;15.30;99.90;;;;;;5017851;28;20370;-81
2022/05/18 01:23:38;;;;;;;8.93;6.07;;;15.30;99.90;;;;;;5010528;28;20124;-81
2022/05/18 01:26:24;;;;;;;10.95;6.25;;;15.20;99.90;;;;;;5027974;28;20120;-81
2022/05/18 01:29:01;;;;;;;10.50;6.93;;;15.20;99.90;;;;;;5024777;28;20424;-80
2022/05/18 01:32:04;;;;;;;7.65;6.85;;;15.10;99.90;;;;;;5028556;28;20427;-80
2022/05/18 01:34:33;;;;;;;11.98;6.80;;;15.10;99.90;;;;;;4968737;28;20129;-80
2022/05/18 01:36:59;;;;;;;11.60;7.30;;;15.10;99.90;;;;;;5005297;28;20411;-80
2022/05/18 01:39:33;;;;;;;12.43;7.93;;;15.10;99.90;;;;;;5028870;28;20365;-80
2022/05/18 01:42:29;;;;;;;10.50;6.35;;;15.10;99.90;;;;;;5027547;28;20052;-81
2022/05/18 01:44:55;;;;;;;8.23;6.20;;;15.00;99.90;;;;;;5036541;28;20048;-81
2022/05/18 01:47:21;;;;;;;10.20;7.13;;;15.00;99.90;;;;;;5027229;28;20064;-80
2022/05/18 01:49:48;;;;;;;9.73;6.47;;;14.90;99.90;;;;;;5014346;28;20402;-80
2022/05/18 01:52:14;;;;;;;9.57;6.18;;;14.90;99.90;;;;;;5027403;28;20053;-80
2022/05/18 01:54:43;;;;;;;11.25;7.20;;;14.90;99.90;;;;;;5043436;28;20092;-81
2022/05/18 01:57:09;;;;;;;9.82;6.55;;;14.90;99.90;;;;;;5028507;28;20116;-81
2022/05/18 01:59:36;;;;;;;12.88;6.95;;;14.80;99.90;;;;;;5031335;28;20172;-80
2022/05/18 02:02:03;;;;;;;11.00;7.10;;;14.80;99.90;;;;;;5011977;28;20085;-81
2022/05/18 02:04:32;;;;;;;9.65;6.40;;;14.80;99.90;;;;;;5021408;28;20050;-80
2022/05/18 02:06:59;;;;;;;8.65;7.28;;;14.80;99.90;;;;;;4988646;28;20877;-80
2022/05/18 02:09:25;;;;;;;9.35;6.38;;;14.80;99.90;;;;;;5004155;28;20053;-80
2022/05/18 02:11:51;;;;;;;13.00;7.43;;;14.70;99.90;;;;;;5032276;28;20625;-81
2022/05/18 02:14:17;;;;;;;10.25;6.50;;;14.70;99.90;;;;;;5012027;28;20050;-80
2022/05/18 02:16:43;;;;;;;10.48;6.97;;;14.70;99.90;;;;;;5032335;28;20129;-80
2022/05/18 02:19:09;;;;;;;10.70;6.85;;;14.70;99.90;;;;;;5007085;28;20111;-81
2022/05/18 02:21:35;;;;;;;11.48;6.57;;;14.70;99.90;;;;;;5021037;28;20186;-80
2022/05/18 02:24:01;;;;;;;10.27;6.72;;;14.60;99.90;;;;;;5011344;28;20124;-80
2022/05/18 02:26:27;;;;;;;9.63;6.03;;;14.60;99.90;;;;;;5031437;28;20491;-80
2022/05/18 02:28:53;;;;;;;13.32;7.55;;;14.60;99.90;;;;;;5020684;28;20255;-78
2022/05/18 02:31:18;;;;;;;8.63;7.35;;;14.60;99.90;;;;;;5028827;28;20052;-80
2022/05/18 02:33:44;;;;;;;12.65;7.22;;;14.50;99.90;;;;;;5015591;28;20049;-80
2022/05/18 02:36:12;;;;;;;10.25;6.65;;;14.60;99.90;;;;;;5012356;28;20491;-80
2022/05/18 02:38:39;;;;;;;10.77;6.88;;;14.60;99.90;;;;;;5018960;28;20049;-81
2022/05/18 02:41:05;;;;;;;11.05;7.25;;;14.60;99.90;;;;;;5014253;28;20068;-81
2022/05/18 02:43:31;;;;;;;9.48;6.72;;;14.60;99.90;;;;;;5034256;28;20491;-81
2022/05/18 02:46:06;;;;;;;11.60;7.20;;;14.60;99.90;;;;;;5027758;28;20446;-80
2022/05/18 02:48:31;;;;;;;12.80;7.55;;;14.50;99.90;;;;;;5052606;28;20124;-80
2022/05/18 02:50:57;;;;;;;10.20;7.32;;;14.50;99.90;;;;;;5007901;28;20152;-81
2022/05/18 02:53:23;;;;;;;14.18;8.10;;;14.50;99.90;;;;;;5005898;28;20525;-80
2022/05/18 02:56:23;;;;;;;11.38;7.18;;;14.40;99.90;;;;;;5059705;28;20071;-80
2022/05/18 02:58:42;;;;;;;8.38;6.80;;;14.40;99.90;;;;;;5008365;28;20062;-80
2022/05/18 03:01:11;;;;;;;13.65;7.70;;;14.40;99.90;;;;;;5030343;28;20037;-81
2022/05/18 03:03:37;;;;;;;8.98;7.10;;;14.40;99.90;;;;;;5019044;28;20076;-81
2022/05/18 03:06:04;;;;;;;10.70;7.68;;;14.30;99.90;;;;;;5035295;28;20045;-80
2022/05/18 03:08:31;;;;;;;11.30;7.22;;;14.40;99.90;;;;;;5028847;28;20206;-80
2022/05/18 03:10:57;;;;;;;11.20;7.13;;;14.40;99.90;;;;;;5024403;28;20049;-80
2022/05/18 03:13:23;;;;;;;9.07;6.75;;;14.40;99.90;;;;;;5045430;28;20060;-81
2022/05/18 03:15:49;;;;;;;11.10;7.55;;;14.30;99.90;;;;;;5002011;28;20041;-80
2022/05/18 03:18:15;;;;;;;11.52;7.47;;;14.30;99.90;;;;;;5031750;28;20037;-81
2022/05/18 03:23:34;;;;;;;11.27;7.53;;;14.20;99.90;;;;;;5017369;28;20449;-80
2022/05/18 03:26:02;;;;;;;12.02;7.75;;;14.20;99.90;;;;;;5046568;28;20042;-80
2022/05/18 03:28:28;;;;;;;9.77;7.80;;;14.20;99.90;;;;;;5043530;28;20077;-81
2022/05/18 03:30:55;;;;;;;12.45;8.20;;;14.10;99.90;;;;;;5017691;28;20081;-80
2022/05/18 03:33:22;;;;;;;8.38;7.22;;;14.10;99.90;;;;;;4996249;28;20049;-81
2022/05/18 03:35:48;;;;;;;13.68;8.48;;;14.10;99.90;;;;;;4997591;28;20075;-80
2022/05/18 03:38:15;;;;;;;13.10;8.02;;;14.00;99.90;;;;;;5014608;28;20041;-80
2022/05/18 03:40:40;;;;;;;14.82;9.07;;;14.00;99.90;;;;;;5014915;28;20049;-80
2022/05/18 03:43:06;;;;;;;11.40;8.23;;;14.00;99.90;;;;;;5014336;28;20049;-80
2022/05/18 03:45:33;;;;;;;12.30;8.30;;;13.90;99.90;;;;;;5032132;28;21011;-80
2022/05/18 03:47:59;;;;;;;12.63;8.13;;;13.90;99.90;;;;;;5032994;28;20057;-80
2022/05/18 03:50:28;;;;;;;8.80;7.88;;;14.00;99.90;;;;;;5044177;28;20045;-80
2022/05/18 03:52:57;;;;;;;12.98;8.23;;;13.90;99.90;;;;;;5046964;28;20057;-80
2022/05/18 03:55:24;;;;;;;12.82;8.25;;;13.90;99.90;;;;;;5029133;28;20045;-81
2022/05/18 03:57:50;;;;;;;11.68;8.77;;;13.90;99.90;;;;;;5014136;28;20093;-80
2022/05/18 04:00:16;;;;;;;11.93;8.65;;;13.90;99.90;;;;;;5018052;28;20150;-80
2022/05/18 04:02:43;;;;;;;12.50;8.65;;;13.90;99.90;;;;;;5006373;28;20594;-80
2022/05/18 04:05:10;;;;;;;11.38;7.80;;;13.90;99.90;;;;;;5029537;28;20572;-80
2022/05/18 04:07:36;;;;;;;12.07;9.20;;;13.90;99.90;;;;;;5013493;28;20048;-80
2022/05/18 04:10:04;;;;;;;11.30;8.60;;;13.90;99.90;;;;;;5030013;28;20051;-80
2022/05/18 04:12:29;;;;;;;11.55;8.60;;;13.90;99.90;;;;;;5042123;28;20034;-80
2022/05/18 04:14:55;;;;;;;11.82;8.30;;;13.90;99.90;;;;;;5046961;28;20261;-81
2022/05/18 04:17:27;;;;;;;11.70;8.98;;;13.90;99.90;;;;;;5029077;28;20045;-80
2022/05/18 04:19:54;;;;;;;11.32;8.02;;;13.80;99.90;;;;;;5043329;28;20053;-80
2022/05/18 04:22:20;;;;;;;13.57;9.20;;;13.80;99.90;;;;;;5045321;28;20069;-80
2022/05/18 04:24:46;;;;;;;13.75;8.98;;;13.90;99.90;;;;;;5028324;28;20120;-81
2022/05/18 04:27:12;;;;;;;14.73;9.05;;;13.90;99.90;;;;;;5030869;28;20495;-80
2022/05/18 04:29:38;;;;;;;12.40;8.70;;;13.90;99.90;;;;;;5029218;28;20037;-81
2022/05/18 04:32:05;;;;;;;12.93;8.45;;;13.90;99.90;;;;;;5029398;28;20056;-80
2022/05/18 04:34:31;;;;;;;15.20;8.90;;;13.90;99.90;;;;;;5030670;28;20049;-80
2022/05/18 04:36:56;;;;;;;12.27;8.93;;;13.90;99.90;;;;;;5012706;28;20061;-80
2022/05/18 04:39:22;;;;;;;13.68;8.88;;;13.90;99.90;;;;;;5042806;28;20471;-81
2022/05/18 04:41:48;;;;;;;15.77;9.02;;;14.00;99.90;;;;;;4995721;28;20416;-80
2022/05/18 04:44:16;;;;;;;10.85;8.57;;;14.00;99.90;;;;;;5030420;28;20049;-81
2022/05/18 04:46:42;;;;;;;11.50;9.07;;;14.10;99.90;;;;;;5038916;28;20038;-80
2022/05/18 04:49:10;;;;;;;12.82;9.45;;;14.10;99.90;;;;;;5027550;28;20053;-80
2022/05/18 04:51:36;;;;;;;12.65;9.63;;;14.20;99.90;;;;;;5042995;28;20053;-80
2022/05/18 04:54:02;;;;;;;13.00;10.20;;;14.20;99.90;;;;;;5010656;28;20528;-80
2022/05/18 04:56:27;;;;;;;13.43;9.13;;;14.20;99.90;;;;;;5027952;28;20099;-79
2022/05/18 04:58:53;;;;;;;12.15;9.25;;;14.30;99.90;;;;;;5020320;28;20053;-80
2022/05/18 05:01:19;;;;;;;15.15;9.23;;;14.40;99.90;;;;;;5013104;28;20048;-80
2022/05/18 05:03:46;;;;;;;15.32;10.15;;;14.40;99.90;;;;;;5001563;28;20050;-79
2022/05/18 05:06:12;;;;;;;12.27;9.50;;;14.50;99.90;;;;;;4994188;28;20399;-80
2022/05/18 05:08:38;;;;;;;15.85;9.27;;;14.50;99.90;;;;;;4997774;28;20065;-80
2022/05/18 05:11:06;;;;;;;15.02;9.52;;;14.60;99.90;;;;;;5029924;28;20041;-80
2022/05/18 05:13:33;;;;;;;14.35;10.52;;;14.70;99.90;;;;;;5027149;28;20060;-80
2022/05/18 05:16:07;;;;;;;11.82;9.45;;;14.80;99.90;;;;;;5029520;28;20041;-79
2022/05/18 05:18:33;;;;;;;11.73;10.25;;;14.80;99.90;;;;;;5014069;28;20050;-80
2022/05/18 05:20:59;;;;;;;15.25;9.82;;;14.90;99.90;;;;;;5046056;28;20041;-79
2022/05/18 05:23:26;;;;;;;10.95;9.52;;;15.00;99.90;;;;;;5022648;28;20129;-80
2022/05/18 05:25:52;;;;;;;15.05;9.80;;;15.10;99.90;;;;;;5010145;28;20049;-80
2022/05/18 05:28:18;;;;;;;14.32;10.25;;;15.10;99.90;;;;;;5037666;28;20049;-80
2022/05/18 05:30:44;;;;;;;14.43;9.80;;;15.20;99.90;;;;;;5008100;28;20053;-80
2022/05/18 05:33:11;;;;;;;12.90;10.82;;;15.20;99.90;;;;;;4993043;28;20064;-80
2022/05/18 05:35:41;;;;;;;16.52;10.82;;;15.20;99.90;;;;;;5014559;28;20103;-80
2022/05/18 05:38:08;;;;;;;14.05;10.35;;;15.30;99.90;;;;;;5029174;28;20477;-79
2022/05/18 05:40:34;;;;;;;13.52;10.10;;;15.40;99.90;;;;;;4994318;28;20136;-80
2022/05/18 05:43:08;;;;;;;13.32;10.00;;;15.50;99.90;;;;;;4998342;28;20046;-79
2022/05/18 05:45:34;;;;;;;16.45;9.98;;;15.60;99.90;;;;;;5038320;28;20049;-80
2022/05/18 05:48:01;;;;;;;13.60;10.27;;;15.60;99.90;;;;;;5014660;28;20136;-80
2022/05/18 05:50:27;;;;;;;15.48;11.15;;;15.70;99.90;;;;;;5014774;28;20398;-80
2022/05/18 05:52:53;;;;;;;14.80;10.40;;;15.80;99.90;;;;;;5013285;28;21053;-79
2022/05/18 05:55:19;;;;;;;15.50;11.35;;;15.90;99.90;;;;;;5027301;28;20056;-79
2022/05/18 05:57:45;;;;;;;17.20;9.45;;;16.00;99.90;;;;;;5034239;28;20083;-78
2022/05/18 06:00:12;;;;;;;13.77;10.13;;;16.10;99.90;;;;;;5028689;28;20080;-79
2022/05/18 06:02:37;;;;;;;10.98;9.75;;;16.30;99.90;;;;;;5024608;28;20049;-80
2022/05/18 06:05:03;;;;;;;14.98;10.48;;;16.40;99.90;;;;;;5016608;28;20053;-82
2022/05/18 06:07:30;;;;;;;13.02;9.48;;;16.60;99.90;;;;;;5024404;28;20136;-79
2022/05/18 06:09:56;;;;;;;10.93;9.27;;;16.80;99.90;;;;;;5026389;28;20049;-79
2022/05/18 06:12:25;;;;;;;14.93;9.23;;;17.10;99.90;;;;;;5031009;28;20132;-80
2022/05/18 06:14:51;;;;;;;10.07;9.07;;;17.40;99.90;;;;;;5018309;28;20110;-79
2022/05/18 06:17:17;;;;;;;13.88;8.75;;;17.60;99.90;;;;;;5031997;28;20053;-88
2022/05/18 06:19:43;;;;;;;10.45;9.30;;;17.90;99.90;;;;;;5000136;28;20056;-88
2022/05/18 06:22:11;;;;;;;13.68;8.30;;;18.20;99.90;;;;;;5036035;28;20041;-87
2022/05/18 06:24:37;;;;;;;13.07;8.90;;;18.50;99.90;;;;;;5044920;28;20053;-86
2022/05/18 06:27:03;;;;;;;10.07;8.05;;;18.70;99.90;;;;;;5028851;28;20049;-86
2022/05/18 06:29:30;;;;;;;12.18;7.97;;;19.00;99.90;;;;;;5044895;28;20034;-87
2022/05/18 06:31:56;;;;;;;10.90;7.88;;;19.20;99.90;;;;;;5013889;28;20045;-89
2022/05/18 06:34:22;;;;;;;10.05;7.45;;;19.50;99.90;;;;;;5048044;28;20049;-89
2022/05/18 06:36:51;;;;;;;10.25;8.85;;;19.70;99.90;;;;;;5050501;28;20048;-88
2022/05/18 06:39:19;;;;;;;11.07;7.78;;;19.90;99.90;;;;;;5024278;28;20056;-88
2022/05/18 06:41:47;;;;;;;9.30;7.88;;;20.10;99.90;;;;;;5023557;28;20041;-88
2022/05/18 06:44:14;;;;;;;8.35;7.47;;;20.30;99.90;;;;;;5026447;28;20480;-87
2022/05/18 06:46:40;;;;;;;9.77;7.00;;;20.50;99.90;;;;;;5004163;28;20052;-86
2022/05/18 06:49:08;;;;;;;8.10;6.80;;;20.80;99.90;;;;;;5015911;28;20053;-87
2022/05/18 06:51:37;;;;;;;9.68;6.97;;;21.00;99.90;;;;;;5031449;28;20059;-86
2022/05/18 06:54:03;;;;;;;8.63;7.18;;;21.20;99.90;;;;;;5045730;28;20077;-87
2022/05/18 06:56:32;;;;;;;10.80;7.32;;;21.40;99.90;;;;;;5016047;28;21652;-86
2022/05/18 06:58:58;;;;;;;10.02;7.20;;;21.60;99.90;;;;;;5047718;28;20060;-87
2022/05/18 07:01:25;;;;;;;8.55;7.10;;;21.80;99.90;;;;;;5019384;28;20525;-86
2022/05/18 07:03:51;;;;;;;9.95;7.90;;;22.00;99.90;;;;;;5051059;28;20486;-85
2022/05/18 07:06:19;;;;;;;10.48;6.65;;;22.30;99.90;;;;;;5016162;28;20049;-88
2022/05/18 07:08:45;;;;;;;8.98;6.88;;;22.50;99.90;;;;;;5047717;28;20139;-85
2022/05/18 07:11:12;;;;;;;8.50;6.45;;;22.80;99.90;;;;;;5032189;28;20084;-87
2022/05/18 07:13:40;;;;;;;7.40;6.30;;;23.10;99.90;;;;;;5017699;28;20084;-87
2022/05/18 07:16:06;;;;;;;7.85;6.55;;;23.40;99.90;;;;;;5046476;28;20849;-86
2022/05/18 07:18:33;;;;;;;6.38;5.78;;;23.60;99.90;;;;;;5043090;28;20050;-87
2022/05/18 07:21:02;;;;;;;10.68;6.55;;;23.90;97.80;;;;;;5044637;28;20144;-87
2022/05/18 07:23:28;;;;;;;8.50;6.13;;;24.10;93.10;;;;;;5029512;28;20048;-87
2022/05/18 07:25:55;;;;;;;7.00;6.30;;;24.30;91.30;;;;;;5014733;28;20053;-86
2022/05/18 07:28:21;;;;;;;9.63;5.97;;;24.40;90.60;;;;;;5031664;28;20049;-86
2022/05/18 07:30:48;;;;;;;10.63;6.38;;;24.60;88.50;;;;;;5047643;28;20046;-85
2022/05/18 07:33:14;;;;;;;13.55;7.30;;;24.90;85.00;;;;;;5033257;28;20445;-86
2022/05/18 07:35:40;;;;;;;10.25;6.30;;;25.10;82.80;;;;;;5015196;28;20037;-86
2022/05/18 07:38:06;;;;;;;8.95;6.47;;;25.10;78.80;;;;;;4996440;28;20088;-85
2022/05/18 07:40:33;;;;;;;8.23;6.25;;;25.10;78.90;;;;;;5030676;28;20072;-86
2022/05/18 07:43:01;;;;;;;11.10;5.75;;;25.10;77.90;;;;;;5030831;28;20514;-87
2022/05/18 07:45:28;;;;;;;7.80;6.00;;;25.20;78.10;;;;;;5034435;28;20057;-87
2022/05/18 07:47:54;;;;;;;10.15;5.82;;;25.40;77.40;;;;;;5031591;28;20053;-86
2022/05/18 07:50:23;;;;;;;8.18;6.03;;;25.70;76.70;;;;;;5046081;28;20628;-86
2022/05/18 07:52:49;;;;;;;9.88;5.63;;;26.10;74.50;;;;;;5045400;28;20045;-86
2022/05/18 07:55:15;;;;;;;8.00;5.55;;;26.20;73.50;;;;;;5032780;28;20542;-87
2022/05/18 07:57:41;;;;;;;7.75;5.22;;;26.40;70.40;;;;;;5015045;28;20045;-87
2022/05/18 08:00:08;;;;;;;9.27;5.40;;;26.70;71.00;;;;;;5031561;28;20053;-87
2022/05/18 08:02:35;;;;;;;11.10;5.22;;;26.90;67.80;;;;;;5031141;28;20049;-86
2022/05/18 08:05:01;;;;;;;5.50;4.93;;;27.00;64.20;;;;;;5013726;28;20050;-86
2022/05/18 08:07:27;;;;;;;8.57;4.57;;;27.10;63.10;;;;;;4982999;28;20064;-87
2022/05/18 08:15:22;;;;;;;7.35;4.60;;;26.70;60.30;;;;;;5047110;28;20045;-86
2022/05/18 08:17:48;;;;;;;6.22;4.18;;;26.40;60.50;;;;;;5006373;28;20059;-86
2022/05/18 08:20:18;;;;;;;6.38;4.53;;;26.40;61.00;;;;;;5017180;28;20054;-86
2022/05/18 08:22:44;;;;;;;6.45;4.22;;;26.90;59.30;;;;;;5028971;28;20409;-86
2022/05/18 08:25:11;;;;;;;7.10;4.38;;;27.30;57.10;;;;;;5042200;28;20075;-86
2022/05/18 08:27:46;;;;;;;8.48;4.82;;;27.70;56.40;;;;;;5031232;28;20049;-88
2022/05/18 08:30:16;;;;;;;6.80;4.32;;;28.10;55.80;;;;;;5046974;28;20133;-86
2022/05/18 08:32:42;;;;;;;8.18;4.57;;;28.40;54.30;;;;;;5063960;28;20045;-87
2022/05/18 08:35:08;;;;;;;6.90;3.50;;;28.60;53.30;;;;;;5046342;28;20045;-87
2022/05/18 08:37:43;;;;;;;7.90;3.70;;;28.70;52.40;;;;;;5013649;28;20081;-87
2022/05/18 08:40:34;;;;;;;8.53;4.00;;;29.00;52.10;;;;;;5029941;28;20410;-86
2022/05/18 08:43:02;;;;;;;7.72;3.78;;;29.30;48.80;;;;;;5030846;28;20049;-88
2022/05/18 08:45:41;;;;;;;6.22;4.10;;;29.70;49.80;;;;;;5044448;28;20118;-87
2022/05/18 08:48:20;;;;;;;8.70;4.53;;;30.20;48.30;;;;;;5023917;28;20049;-88
2022/05/18 08:50:47;;;;;;;5.07;3.55;;;30.30;45.30;;;;;;5010136;28;20096;-88
2022/05/18 08:53:24;;;;;;;7.70;4.55;;;30.50;47.20;;;;;;5017263;28;20106;-88
2022/05/18 08:56:14;;;;;;;6.88;4.00;;;31.00;46.30;;;;;;5027663;28;20100;-87
2022/05/18 08:58:48;;;;;;;8.30;4.30;;;31.20;45.10;;;;;;5029584;28;20041;-89
2022/05/18 09:01:25;;;;;;;7.47;4.22;;;31.50;44.50;;;;;;5028169;28;20045;-89
2022/05/18 09:04:08;;;;;;;6.28;4.28;;;31.60;41.50;;;;;;5013463;28;20053;-86
2022/05/18 09:06:36;;;;;;;9.77;4.70;;;31.40;43.10;;;;;;5029617;28;20136;-88
2022/05/18 09:12:22;;;;;;;10.85;5.05;;;32.20;45.00;;;;;;5030086;28;20588;-88
2022/05/18 09:14:48;;;;;;;9.10;4.65;;;32.50;43.00;;;;;;5010343;28;20120;-87
2022/05/18 09:17:36;;;;;;;6.90;4.00;;;32.60;42.30;;;;;;5029099;28;20124;-88
2022/05/18 09:20:20;;;;;;;7.10;4.25;;;32.80;41.20;;;;;;5034290;28;20404;-87
2022/05/18 09:23:21;;;;;;;6.30;4.65;;;33.00;40.70;;;;;;5033429;28;20132;-87
2022/05/18 09:25:56;;;;;;;8.85;4.70;;;33.10;39.20;;;;;;5017094;28;20049;-87
2022/05/18 09:28:40;;;;;;;8.18;4.38;;;33.10;41.00;;;;;;5029365;28;20084;-87
2022/05/18 09:31:37;;;;;;;7.63;4.53;;;33.30;40.30;;;;;;5028908;28;20118;-88
2022/05/18 09:34:28;;;;;;;6.43;4.65;;;33.50;40.20;;;;;;5047961;28;20048;-85
2022/05/18 09:37:09;;;;;;;9.63;4.60;;;33.60;39.50;;;;;;5026337;28;20671;-89
2022/05/18 09:39:41;;;;;;;12.02;4.82;;;33.70;39.10;;;;;;5026365;28;20037;-89
2022/05/18 09:42:14;;;;;;;8.82;4.57;;;34.10;38.80;;;;;;5035734;28;20312;-88
2022/05/18 09:45:18;;;;;;;11.52;4.28;;;34.20;38.90;;;;;;5029135;28;20487;-87
2022/05/18 09:48:02;;;;;;;8.93;5.13;;;34.70;37.80;;;;;;5016159;28;20122;-88
2022/05/18 09:50:28;;;;;;;8.90;4.45;;;34.70;35.80;;;;;;5055481;28;20140;-87
2022/05/18 09:52:55;;;;;;;6.20;4.35;;;34.80;37.60;;;;;;4980377;28;20093;-87
2022/05/18 09:55:24;;;;;;;6.15;3.60;;;35.30;37.50;;;;;;5031566;28;20159;-88
2022/05/18 09:57:59;;;;;;;15.70;4.78;;;35.60;36.50;;;;;;5046911;28;20379;-87
2022/05/18 10:00:27;;;;;;;6.50;3.90;;;35.80;36.70;;;;;;5007947;28;20052;-88
2022/05/18 10:08:42;;;;;;;6.90;4.30;;;35.70;34.50;;;;;;5001089;28;20562;-87
2022/05/18 10:11:14;;;;;;;5.57;4.97;;;35.30;34.60;;;;;;5066072;28;20048;-87
2022/05/18 10:13:53;;;;;;;8.88;4.78;;;35.00;34.80;;;;;;5066405;28;20426;-87
2022/05/18 10:16:58;;;;;;;7.75;4.22;;;34.90;36.50;;;;;;5040285;28;20050;-87
2022/05/18 10:19:46;;;;;;;6.40;3.90;;;35.10;34.50;;;;;;5026996;28;20102;-87
2022/05/18 10:22:19;;;;;;;8.25;5.28;;;35.20;35.30;;;;;;5032649;28;20053;-88
2022/05/18 10:24:57;;;;;;;7.53;5.18;;;35.50;34.40;;;;;;5047662;28;20509;-87
2022/05/18 10:27:28;;;;;;;8.35;5.00;;;35.30;34.00;;;;;;5032606;28;20143;-86
2022/05/18 10:30:18;;;;;;;6.40;4.60;;;35.00;34.50;;;;;;5017817;28;20052;-86
2022/05/18 10:33:03;;;;;;;7.07;3.80;;;35.20;34.70;;;;;;5047622;28;20048;-85
2022/05/18 10:35:38;;;;;;;7.72;5.20;;;35.60;33.90;;;;;;5037466;28;20060;-85
2022/05/18 10:38:15;;;;;;;8.63;4.53;;;35.70;33.30;;;;;;5019408;28;20136;-85
2022/05/18 10:40:40;;;;;;;8.23;4.68;;;36.30;34.40;;;;;;5030448;28;20107;-86
2022/05/18 10:43:33;;;;;;;6.75;4.10;;;36.70;32.90;;;;;;5012824;28;20045;-84
2022/05/18 10:46:26;;;;;;;6.82;3.60;;;36.90;33.20;;;;;;5010755;28;20766;-85
2022/05/18 10:48:57;;;;;;;5.82;4.00;;;36.80;32.30;;;;;;5032185;28;20073;-86
2022/05/18 10:51:50;;;;;;;8.13;5.55;;;36.80;31.40;;;;;;4999858;28;20156;-88
2022/05/18 10:54:28;;;;;;;9.15;5.10;;;36.30;32.30;;;;;;4998482;28;20064;-84
2022/05/18 10:57:13;;;;;;;8.77;4.47;;;36.30;32.90;;;;;;5047153;28;20061;-86
2022/05/18 10:59:58;;;;;;;9.77;6.40;;;36.30;33.60;;;;;;5043987;28;20042;-85
2022/05/18 11:02:42;;;;;;;11.68;6.88;;;36.20;32.70;;;;;;5021262;28;20057;-85
2022/05/18 11:05:37;;;;;;;12.85;6.40;;;35.80;33.60;;;;;;5012080;28;20064;-86
2022/05/18 11:08:06;;;;;;;12.88;5.97;;;35.60;33.10;;;;;;5036744;28;20041;-86
2022/05/18 11:10:41;;;;;;;11.48;5.97;;;35.70;33.20;;;;;;5006717;28;20045;-86
2022/05/18 11:13:24;;;;;;;8.85;5.90;;;35.70;34.00;;;;;;5028879;28;20042;-85
2022/05/18 11:15:57;;;;;;;10.85;5.45;;;36.00;33.10;;;;;;5009174;28;20045;-87
2022/05/18 11:18:45;;;;;;;7.68;4.95;;;36.10;32.20;;;;;;5030772;28;20413;-86
2022/05/18 11:21:32;;;;;;;9.15;4.40;;;35.90;33.70;;;;;;5014667;28;20052;-84
2022/05/18 11:24:07;;;;;;;11.38;4.97;;;36.50;32.10;;;;;;5046372;28;20079;-89
2022/05/18 11:27:16;;;;;;;11.63;5.72;;;36.60;30.80;;;;;;5033001;28;20037;-89
2022/05/18 11:30:17;;;;;;;8.63;6.10;;;36.40;30.70;;;;;;5029457;28;20044;-89
2022/05/18 11:32:55;;;;;;;8.40;5.82;;;36.70;31.50;;;;;;5028594;28;20053;-89
2022/05/18 11:35:58;;;;;;;8.93;5.50;;;36.50;31.70;;;;;;5028054;28;20066;-89
2022/05/18 11:38:33;;;;;;;10.20;5.00;;;36.90;31.00;;;;;;5029748;28;20046;-88
2022/05/18 11:41:35;;;;;;;6.95;4.25;;;36.90;30.30;;;;;;5017322;28;20103;-88
2022/05/18 11:44:22;;;;;;;6.03;4.13;;;36.60;30.50;;;;;;5014254;28;20064;-90
2022/05/18 11:47:12;;;;;;;7.25;3.72;;;36.80;29.80;;;;;;5031665;28;20060;-91
2022/05/18 11:50:06;;;;;;;7.65;5.10;;;37.20;29.70;;;;;;5014792;28;20569;-88
2022/05/18 11:52:41;;;;;;;8.32;5.70;;;37.60;29.80;;;;;;5023410;28;20143;-90
2022/05/18 11:55:22;;;;;;;8.13;4.63;;;37.80;30.00;;;;;;5017912;28;20057;-92
2022/05/18 11:57:59;;;;;;;6.45;5.45;;;37.20;29.10;;;;;;5011960;28;20533;-90
2022/05/18 12:03:24;;;;;;;9.30;5.13;;;34.50;32.90;;;;;;5051768;28;20060;-90
2022/05/18 12:06:27;;;;;;;9.05;5.47;;;33.90;35.00;;;;;;5033128;28;20058;-86
2022/05/18 12:09:11;;;;;;;12.88;6.45;;;34.10;34.70;;;;;;5031839;28;20142;-89
2022/05/18 12:11:59;;;;;;;13.00;6.57;;;34.60;32.90;;;;;;5047135;28;20486;-89
2022/05/18 12:14:54;;;;;;;6.50;5.60;;;35.00;33.70;;;;;;4996517;28;20046;-90
2022/05/18 12:17:46;;;;;;;8.05;5.10;;;35.20;31.30;;;;;;5029198;28;20038;-90
2022/05/18 12:20:19;;;;;;;12.35;6.32;;;34.30;33.20;;;;;;5013750;28;20115;-89
2022/05/18 12:22:59;;;;;;;11.38;6.03;;;33.10;35.00;;;;;;5015596;28;20526;-90
2022/05/18 12:25:27;;;;;;;7.35;5.45;;;32.00;36.50;;;;;;5031086;28;20049;-91
2022/05/18 12:27:57;;;;;;;9.35;6.25;;;31.90;37.40;;;;;;5031684;28;20092;-91
2022/05/18 12:30:25;;;;;;;9.00;5.68;;;31.70;37.90;;;;;;5032035;28;20045;-89
2022/05/18 12:32:53;;;;;;;9.80;5.90;;;31.10;39.00;;;;;;5035970;28;20048;-90
2022/05/18 12:35:34;;;;;;;8.43;4.88;;;30.70;39.90;;;;;;5033426;28;20155;-88
2022/05/18 12:38:21;;;;;;;9.73;5.35;;;30.40;41.10;;;;;;5015730;28;20041;-90
2022/05/18 12:41:04;;;;;;;8.05;5.07;;;30.00;42.10;;;;;;5014976;28;20049;-88
2022/05/18 12:43:40;;;;;;;8.98;5.78;;;29.90;43.40;;;;;;5016483;28;20046;-89
2022/05/18 12:46:15;;;;;;;9.00;5.80;;;29.70;44.20;;;;;;5045766;28;20111;-87
2022/05/18 12:48:54;;;;;;;11.25;6.30;;;29.70;45.00;;;;;;5029361;28;20165;-88
2022/05/18 12:51:31;;;;;;;10.02;7.63;;;29.70;45.30;;;;;;5013816;28;20182;-86
2022/05/18 12:54:09;;;;;;;9.57;5.88;;;30.30;45.10;;;;;;5037541;28;20049;-87
2022/05/18 12:56:35;;;;;;;6.53;5.32;;;30.60;44.20;;;;;;5033851;28;20037;-87
2022/05/18 12:59:12;;;;;;;9.85;5.47;;;30.30;44.90;;;;;;5030856;28;20198;-86
2022/05/18 13:01:44;;;;;;;7.38;4.60;;;30.40;45.80;;;;;;5032872;28;20048;-87
2022/05/18 13:04:09;;;;;;;5.60;4.22;;;30.40;45.80;;;;;;5017661;28;20110;-88
2022/05/18 13:06:35;;;;;;;5.82;3.95;;;30.30;45.80;;;;;;5049032;28;20041;-86
2022/05/18 13:09:25;;;;;;;6.82;4.15;;;30.60;45.60;;;;;;5049547;28;20045;-87
2022/05/18 13:12:16;;;;;;;8.32;4.28;;;30.80;45.30;;;;;;5040316;28;20516;-88
2022/05/18 13:14:59;;;;;;;7.68;3.50;;;30.30;45.60;;;;;;5016700;28;20057;-87
2022/05/18 13:18:07;;;;;;;8.18;3.75;;;30.00;46.60;;;;;;5028240;28;20051;-86
2022/05/18 13:20:45;;;;;;;5.65;3.35;;;30.30;45.60;;;;;;5015794;28;20539;-85
2022/05/18 13:23:31;;;;;;;9.20;4.28;;;30.30;45.50;;;;;;5028853;28;20049;-87
2022/05/18 13:26:12;;;;;;;10.82;4.70;;;30.30;45.90;;;;;;5011805;28;20495;-88